sensor_id;sensor_type;location;lat;lon;timestamp;temperature;humidity
47336;DHT22;33068;51.990;5.926;2023-04-25T00:01:33;6.00;99.90
47336;DHT22;33068;51.990;5.926;2023-04-25T00:04:04;6.00;99.90
47336;DHT22;33068;51.990;5.926;2023-04-25T00:06:32;6.30;99.90
47336;DHT22;33068;51.990;5.926;2023-04-25T00:09:02;6.00;99.90
47336;DHT22;33068;51.990;5.926;2023-04-25T00:11:29;6.00;99.90
47336;DHT22;33068;51.990;5.926;2023-04-25T00:13:57;5.90;99.90
47336;DHT22;33068;51.990;5.926;2023-04-25T00:16:25;5.90;99.90
47336;DHT22;33068;51.990;5.926;2023-04-25T00:18:52;5.90;99.90
47336;DHT22;33068;51.990;5.926;2023-04-25T00:21:21;5.80;99.90
47336;DHT22;33068;51.990;5.926;2023-04-25T00:23:50;5.70;99.90
47336;DHT22;33068;51.990;5.926;2023-04-25T00:26:17;5.70;99.90
47336;DHT22;33068;51.990;5.926;2023-04-25T00:28:44;5.70;99.90
47336;DHT22;33068;51.990;5.926;2023-04-25T00:31:11;5.60;99.90
47336;DHT22;33068;51.990;5.926;2023-04-25T00:33:41;5.60;99.90
47336;DHT22;33068;51.990;5.926;2023-04-25T00:36:09;5.50;99.90
47336;DHT22;33068;51.990;5.926;2023-04-25T00:38:38;5.50;99.90
47336;DHT22;33068;51.990;5.926;2023-04-25T00:41:05;5.40;99.90
47336;DHT22;33068;51.990;5.926;2023-04-25T00:43:33;5.40;99.90
47336;DHT22;33068;51.990;5.926;2023-04-25T00:46:03;5.40;99.90
47336;DHT22;33068;51.990;5.926;2023-04-25T00:48:30;5.30;99.90
47336;DHT22;33068;51.990;5.926;2023-04-25T00:50:59;5.40;99.90
47336;DHT22;33068;51.990;5.926;2023-04-25T00:53:28;5.60;99.90
47336;DHT22;33068;51.990;5.926;2023-04-25T00:55:59;5.50;99.90
47336;DHT22;33068;51.990;5.926;2023-04-25T00:58:26;5.60;99.90
47336;DHT22;33068;51.990;5.926;2023-04-25T01:00:53;5.40;99.90
47336;DHT22;33068;51.990;5.926;2023-04-25T01:03:22;5.40;99.90
47336;DHT22;33068;51.990;5.926;2023-04-25T01:05:50;5.40;99.90
47336;DHT22;33068;51.990;5.926;2023-04-25T01:08:17;5.50;99.90
47336;DHT22;33068;51.990;5.926;2023-04-25T01:10:44;5.30;99.90
47336;DHT22;33068;51.990;5.926;2023-04-25T01:13:13;5.30;99.90
47336;DHT22;33068;51.990;5.926;2023-04-25T01:15:40;5.30;99.90
47336;DHT22;33068;51.990;5.926;2023-04-25T01:18:07;5.20;99.90
47336;DHT22;33068;51.990;5.926;2023-04-25T01:20:35;5.20;99.90
47336;DHT22;33068;51.990;5.926;2023-04-25T01:23:05;5.20;99.90
47336;DHT22;33068;51.990;5.926;2023-04-25T01:25:32;5.20;99.90
47336;DHT22;33068;51.990;5.926;2023-04-25T01:28:00;4.90;99.90
47336;DHT22;33068;51.990;5.926;2023-04-25T01:30:29;5.20;99.90
47336;DHT22;33068;51.990;5.926;2023-04-25T01:32:57;5.20;99.90
47336;DHT22;33068;51.990;5.926;2023-04-25T01:35:24;5.20;99.90
47336;DHT22;33068;51.990;5.926;2023-04-25T01:38:13;5.20;99.90
47336;DHT22;33068;51.990;5.926;2023-04-25T01:40:41;5.20;99.90
47336;DHT22;33068;51.990;5.926;2023-04-25T01:43:08;5.30;99.90
47336;DHT22;33068;51.990;5.926;2023-04-25T01:45:38;5.30;99.90
47336;DHT22;33068;51.990;5.926;2023-04-25T01:48:07;5.30;99.90
47336;DHT22;33068;51.990;5.926;2023-04-25T01:50:36;5.40;99.90
47336;DHT22;33068;51.990;5.926;2023-04-25T01:53:04;5.40;99.90
47336;DHT22;33068;51.990;5.926;2023-04-25T01:55:33;5.40;99.90
47336;DHT22;33068;51.990;5.926;2023-04-25T01:58:05;5.30;99.90
47336;DHT22;33068;51.990;5.926;2023-04-25T02:00:57;5.30;99.90
47336;DHT22;33068;51.990;5.926;2023-04-25T02:03:28;5.30;99.90
47336;DHT22;33068;51.990;5.926;2023-04-25T02:05:56;5.40;99.90
47336;DHT22;33068;51.990;5.926;2023-04-25T02:08:24;5.40;99.90
47336;DHT22;33068;51.990;5.926;2023-04-25T02:10:55;5.40;99.90
47336;DHT22;33068;51.990;5.926;2023-04-25T02:13:24;5.30;99.90
47336;DHT22;33068;51.990;5.926;2023-04-25T02:15:54;5.30;99.90
47336;DHT22;33068;51.990;5.926;2023-04-25T02:18:21;5.30;99.90
47336;DHT22;33068;51.990;5.926;2023-04-25T02:20:48;5.30;99.90
47336;DHT22;33068;51.990;5.926;2023-04-25T02:23:15;5.30;99.90
47336;DHT22;33068;51.990;5.926;2023-04-25T02:25:44;5.40;99.90
47336;DHT22;33068;51.990;5.926;2023-04-25T02:28:13;5.30;99.90
47336;DHT22;33068;51.990;5.926;2023-04-25T02:30:40;5.30;99.90
47336;DHT22;33068;51.990;5.926;2023-04-25T02:33:07;5.20;99.90
47336;DHT22;33068;51.990;5.926;2023-04-25T02:35:35;5.30;99.90
47336;DHT22;33068;51.990;5.926;2023-04-25T02:38:02;5.30;99.90
47336;DHT22;33068;51.990;5.926;2023-04-25T02:40:29;5.20;99.90
47336;DHT22;33068;51.990;5.926;2023-04-25T02:42:56;4.90;99.90
47336;DHT22;33068;51.990;5.926;2023-04-25T02:45:27;5.20;99.90
47336;DHT22;33068;51.990;5.926;2023-04-25T02:47:55;5.20;99.90
47336;DHT22;33068;51.990;5.926;2023-04-25T02:50:22;5.10;99.90
47336;DHT22;33068;51.990;5.926;2023-04-25T02:52:50;5.10;99.90
47336;DHT22;33068;51.990;5.926;2023-04-25T02:55:22;5.00;99.90
47336;DHT22;33068;51.990;5.926;2023-04-25T02:57:49;5.20;99.90
47336;DHT22;33068;51.990;5.926;2023-04-25T03:00:29;5.00;99.90
47336;DHT22;33068;51.990;5.926;2023-04-25T03:02:56;4.90;99.90
47336;DHT22;33068;51.990;5.926;2023-04-25T03:05:23;4.90;99.90
47336;DHT22;33068;51.990;5.926;2023-04-25T03:07:51;4.90;99.90
47336;DHT22;33068;51.990;5.926;2023-04-25T03:10:18;4.80;99.90
47336;DHT22;33068;51.990;5.926;2023-04-25T03:12:45;4.80;99.90
47336;DHT22;33068;51.990;5.926;2023-04-25T03:15:12;4.80;99.90
47336;DHT22;33068;51.990;5.926;2023-04-25T03:17:42;4.60;99.90
47336;DHT22;33068;51.990;5.926;2023-04-25T03:20:10;4.70;99.90
47336;DHT22;33068;51.990;5.926;2023-04-25T03:22:38;4.60;99.90
47336;DHT22;33068;51.990;5.926;2023-04-25T03:25:06;4.50;99.90
47336;DHT22;33068;51.990;5.926;2023-04-25T03:27:34;4.50;99.90
47336;DHT22;33068;51.990;5.926;2023-04-25T03:30:02;4.80;99.90
47336;DHT22;33068;51.990;5.926;2023-04-25T03:32:29;4.50;99.90
47336;DHT22;33068;51.990;5.926;2023-04-25T03:34:59;4.40;99.90
47336;DHT22;33068;51.990;5.926;2023-04-25T03:37:27;4.40;99.90
47336;DHT22;33068;51.990;5.926;2023-04-25T03:39:54;4.40;99.90
47336;DHT22;33068;51.990;5.926;2023-04-25T03:42:24;4.40;99.90
47336;DHT22;33068;51.990;5.926;2023-04-25T03:44:52;4.30;99.90
47336;DHT22;33068;51.990;5.926;2023-04-25T03:47:20;4.30;99.90
47336;DHT22;33068;51.990;5.926;2023-04-25T03:49:48;4.30;99.90
47336;DHT22;33068;51.990;5.926;2023-04-25T03:52:21;4.30;99.90
47336;DHT22;33068;51.990;5.926;2023-04-25T03:54:49;4.30;99.90
47336;DHT22;33068;51.990;5.926;2023-04-25T03:57:21;4.30;99.90
47336;DHT22;33068;51.990;5.926;2023-04-25T03:59:48;4.30;99.90
47336;DHT22;33068;51.990;5.926;2023-04-25T04:02:15;4.60;99.90
47336;DHT22;33068;51.990;5.926;2023-04-25T04:04:43;4.50;99.90
47336;DHT22;33068;51.990;5.926;2023-04-25T04:07:11;4.20;99.90
47336;DHT22;33068;51.990;5.926;2023-04-25T04:09:42;4.20;99.90
47336;DHT22;33068;51.990;5.926;2023-04-25T04:12:15;4.10;99.90
47336;DHT22;33068;51.990;5.926;2023-04-25T04:14:42;4.10;99.90
47336;DHT22;33068;51.990;5.926;2023-04-25T04:17:09;4.00;99.90
47336;DHT22;33068;51.990;5.926;2023-04-25T04:19:36;4.00;99.90
47336;DHT22;33068;51.990;5.926;2023-04-25T04:22:09;4.00;99.90
47336;DHT22;33068;51.990;5.926;2023-04-25T04:24:36;4.10;99.90
47336;DHT22;33068;51.990;5.926;2023-04-25T04:27:07;4.10;99.90
47336;DHT22;33068;51.990;5.926;2023-04-25T04:29:48;4.10;99.90
47336;DHT22;33068;51.990;5.926;2023-04-25T04:32:23;4.00;99.90
47336;DHT22;33068;51.990;5.926;2023-04-25T04:34:52;4.10;99.90
47336;DHT22;33068;51.990;5.926;2023-04-25T04:37:21;4.10;99.90
47336;DHT22;33068;51.990;5.926;2023-04-25T04:39:48;4.10;99.90
47336;DHT22;33068;51.990;5.926;2023-04-25T04:42:41;4.10;99.90
47336;DHT22;33068;51.990;5.926;2023-04-25T04:45:22;4.50;99.90
47336;DHT22;33068;51.990;5.926;2023-04-25T04:48:08;4.20;99.90
47336;DHT22;33068;51.990;5.926;2023-04-25T04:50:59;4.20;99.90
47336;DHT22;33068;51.990;5.926;2023-04-25T04:53:44;4.20;99.90
47336;DHT22;33068;51.990;5.926;2023-04-25T04:56:27;4.30;99.90
47336;DHT22;33068;51.990;5.926;2023-04-25T04:59:14;4.40;99.90
47336;DHT22;33068;51.990;5.926;2023-04-25T05:02:17;4.40;99.90
47336;DHT22;33068;51.990;5.926;2023-04-25T05:05:00;4.50;99.90
47336;DHT22;33068;51.990;5.926;2023-04-25T05:07:56;4.40;99.90
47336;DHT22;33068;51.990;5.926;2023-04-25T05:10:44;4.40;99.90
47336;DHT22;33068;51.990;5.926;2023-04-25T05:13:51;4.40;99.90
47336;DHT22;33068;51.990;5.926;2023-04-25T05:17:02;4.40;99.90
47336;DHT22;33068;51.990;5.926;2023-04-25T05:19:56;4.50;99.90
47336;DHT22;33068;51.990;5.926;2023-04-25T05:22:43;4.40;99.90
47336;DHT22;33068;51.990;5.926;2023-04-25T05:25:19;4.50;99.90
47336;DHT22;33068;51.990;5.926;2023-04-25T05:27:46;4.50;99.90
47336;DHT22;33068;51.990;5.926;2023-04-25T05:30:27;4.50;99.90
47336;DHT22;33068;51.990;5.926;2023-04-25T05:33:01;4.60;99.90
47336;DHT22;33068;51.990;5.926;2023-04-25T05:35:32;4.60;99.90
47336;DHT22;33068;51.990;5.926;2023-04-25T05:38:00;4.60;99.90
47336;DHT22;33068;51.990;5.926;2023-04-25T05:40:46;4.60;99.90
47336;DHT22;33068;51.990;5.926;2023-04-25T05:43:35;4.60;99.90
47336;DHT22;33068;51.990;5.926;2023-04-25T05:46:17;4.90;99.90
47336;DHT22;33068;51.990;5.926;2023-04-25T05:49:14;4.70;99.90
47336;DHT22;33068;51.990;5.926;2023-04-25T05:52:00;4.70;99.90
47336;DHT22;33068;51.990;5.926;2023-04-25T05:54:42;4.40;99.90
47336;DHT22;33068;51.990;5.926;2023-04-25T05:57:19;4.70;99.90
47336;DHT22;33068;51.990;5.926;2023-04-25T05:59:47;4.70;99.90
47336;DHT22;33068;51.990;5.926;2023-04-25T06:02:14;4.70;99.90
47336;DHT22;33068;51.990;5.926;2023-04-25T06:05:04;4.50;99.90
47336;DHT22;33068;51.990;5.926;2023-04-25T06:07:37;4.90;99.90
47336;DHT22;33068;51.990;5.926;2023-04-25T06:10:06;4.90;99.90
47336;DHT22;33068;51.990;5.926;2023-04-25T06:12:33;5.00;99.90
47336;DHT22;33068;51.990;5.926;2023-04-25T06:15:00;5.10;99.90
47336;DHT22;33068;51.990;5.926;2023-04-25T06:17:27;5.10;99.90
47336;DHT22;33068;51.990;5.926;2023-04-25T06:19:55;5.30;99.90
47336;DHT22;33068;51.990;5.926;2023-04-25T06:22:24;5.20;99.90
47336;DHT22;33068;51.990;5.926;2023-04-25T06:24:51;5.30;99.90
47336;DHT22;33068;51.990;5.926;2023-04-25T06:27:18;5.40;99.90
47336;DHT22;33068;51.990;5.926;2023-04-25T06:29:46;5.50;99.90
47336;DHT22;33068;51.990;5.926;2023-04-25T06:32:14;5.50;99.90
47336;DHT22;33068;51.990;5.926;2023-04-25T06:34:41;5.60;99.90
47336;DHT22;33068;51.990;5.926;2023-04-25T06:37:08;5.70;99.90
47336;DHT22;33068;51.990;5.926;2023-04-25T06:39:39;5.80;99.90
47336;DHT22;33068;51.990;5.926;2023-04-25T06:42:06;6.00;99.90
47336;DHT22;33068;51.990;5.926;2023-04-25T06:45:00;6.00;99.90
47336;DHT22;33068;51.990;5.926;2023-04-25T06:47:29;6.10;99.90
47336;DHT22;33068;51.990;5.926;2023-04-25T06:49:56;6.10;99.90
47336;DHT22;33068;51.990;5.926;2023-04-25T06:52:23;6.30;99.90
47336;DHT22;33068;51.990;5.926;2023-04-25T06:54:53;6.40;99.90
47336;DHT22;33068;51.990;5.926;2023-04-25T06:57:33;6.40;99.90
47336;DHT22;33068;51.990;5.926;2023-04-25T07:00:17;6.50;99.90
47336;DHT22;33068;51.990;5.926;2023-04-25T07:02:45;6.60;99.90
47336;DHT22;33068;51.990;5.926;2023-04-25T07:05:12;6.60;99.90
47336;DHT22;33068;51.990;5.926;2023-04-25T07:07:39;6.70;99.90
47336;DHT22;33068;51.990;5.926;2023-04-25T07:10:08;6.70;99.90
47336;DHT22;33068;51.990;5.926;2023-04-25T07:12:36;6.70;99.90
47336;DHT22;33068;51.990;5.926;2023-04-25T07:15:05;6.70;99.90
47336;DHT22;33068;51.990;5.926;2023-04-25T07:17:35;6.70;99.90
47336;DHT22;33068;51.990;5.926;2023-04-25T07:20:02;6.90;99.90
47336;DHT22;33068;51.990;5.926;2023-04-25T07:22:31;7.10;99.90
47336;DHT22;33068;51.990;5.926;2023-04-25T07:24:58;7.40;99.90
47336;DHT22;33068;51.990;5.926;2023-04-25T07:27:29;7.50;99.90
47336;DHT22;33068;51.990;5.926;2023-04-25T07:30:17;7.60;99.90
47336;DHT22;33068;51.990;5.926;2023-04-25T07:32:44;7.80;99.90
47336;DHT22;33068;51.990;5.926;2023-04-25T07:35:12;8.00;99.90
47336;DHT22;33068;51.990;5.926;2023-04-25T07:37:40;8.30;99.90
47336;DHT22;33068;51.990;5.926;2023-04-25T07:40:11;8.40;99.90
47336;DHT22;33068;51.990;5.926;2023-04-25T07:42:45;8.40;99.90
47336;DHT22;33068;51.990;5.926;2023-04-25T07:45:17;8.50;99.90
47336;DHT22;33068;51.990;5.926;2023-04-25T07:47:44;8.40;99.90
47336;DHT22;33068;51.990;5.926;2023-04-25T07:50:12;8.40;99.90
47336;DHT22;33068;51.990;5.926;2023-04-25T07:52:41;8.50;99.90
47336;DHT22;33068;51.990;5.926;2023-04-25T07:55:18;8.60;99.90
47336;DHT22;33068;51.990;5.926;2023-04-25T07:57:58;8.70;99.90
47336;DHT22;33068;51.990;5.926;2023-04-25T08:00:28;8.70;99.90
47336;DHT22;33068;51.990;5.926;2023-04-25T08:03:15;8.60;99.90
47336;DHT22;33068;51.990;5.926;2023-04-25T08:05:43;8.80;99.90
47336;DHT22;33068;51.990;5.926;2023-04-25T08:08:12;8.80;99.90
47336;DHT22;33068;51.990;5.926;2023-04-25T08:10:43;8.90;99.90
47336;DHT22;33068;51.990;5.926;2023-04-25T08:13:14;8.90;99.90
47336;DHT22;33068;51.990;5.926;2023-04-25T08:15:42;9.90;99.90
47336;DHT22;33068;51.990;5.926;2023-04-25T08:18:13;11.00;99.90
47336;DHT22;33068;51.990;5.926;2023-04-25T08:20:41;12.20;99.90
47336;DHT22;33068;51.990;5.926;2023-04-25T08:23:10;12.80;99.90
47336;DHT22;33068;51.990;5.926;2023-04-25T08:25:47;12.80;98.70
47336;DHT22;33068;51.990;5.926;2023-04-25T08:28:18;12.80;97.20
47336;DHT22;33068;51.990;5.926;2023-04-25T08:30:46;13.10;97.70
47336;DHT22;33068;51.990;5.926;2023-04-25T08:33:14;13.30;95.90
47336;DHT22;33068;51.990;5.926;2023-04-25T08:35:55;13.50;96.70
47336;DHT22;33068;51.990;5.926;2023-04-25T08:38:24;13.70;92.80
47336;DHT22;33068;51.990;5.926;2023-04-25T08:40:54;12.70;94.60
47336;DHT22;33068;51.990;5.926;2023-04-25T08:43:24;12.10;94.20
47336;DHT22;33068;51.990;5.926;2023-04-25T08:45:53;11.30;96.30
47336;DHT22;33068;51.990;5.926;2023-04-25T08:48:36;10.70;98.50
47336;DHT22;33068;51.990;5.926;2023-04-25T08:51:06;10.00;99.90
47336;DHT22;33068;51.990;5.926;2023-04-25T08:53:34;9.70;99.90
47336;DHT22;33068;51.990;5.926;2023-04-25T08:56:04;9.70;99.90
47336;DHT22;33068;51.990;5.926;2023-04-25T08:58:37;10.00;99.90
47336;DHT22;33068;51.990;5.926;2023-04-25T09:01:04;10.40;99.90
47336;DHT22;33068;51.990;5.926;2023-04-25T09:03:38;10.30;99.90
47336;DHT22;33068;51.990;5.926;2023-04-25T09:06:05;10.00;99.90
47336;DHT22;33068;51.990;5.926;2023-04-25T09:08:33;9.90;99.90
47336;DHT22;33068;51.990;5.926;2023-04-25T09:11:01;9.60;99.90
47336;DHT22;33068;51.990;5.926;2023-04-25T09:13:30;9.50;99.90
47336;DHT22;33068;51.990;5.926;2023-04-25T09:16:21;9.30;99.90
47336;DHT22;33068;51.990;5.926;2023-04-25T09:19:21;9.40;99.90
47336;DHT22;33068;51.990;5.926;2023-04-25T09:21:49;9.40;99.90
47336;DHT22;33068;51.990;5.926;2023-04-25T09:24:16;9.20;99.90
47336;DHT22;33068;51.990;5.926;2023-04-25T09:26:43;9.10;99.90
47336;DHT22;33068;51.990;5.926;2023-04-25T09:29:10;9.20;99.90
47336;DHT22;33068;51.990;5.926;2023-04-25T09:31:41;9.40;99.90
47336;DHT22;33068;51.990;5.926;2023-04-25T09:34:10;9.30;99.90
47336;DHT22;33068;51.990;5.926;2023-04-25T09:36:45;9.50;99.90
47336;DHT22;33068;51.990;5.926;2023-04-25T09:39:23;9.40;99.90
47336;DHT22;33068;51.990;5.926;2023-04-25T09:42:03;9.60;99.90
47336;DHT22;33068;51.990;5.926;2023-04-25T09:44:31;9.60;99.90
47336;DHT22;33068;51.990;5.926;2023-04-25T09:47:00;9.70;99.90
47336;DHT22;33068;51.990;5.926;2023-04-25T09:49:30;10.30;99.80
47336;DHT22;33068;51.990;5.926;2023-04-25T09:52:06;10.60;99.90
47336;DHT22;33068;51.990;5.926;2023-04-25T09:54:51;11.20;99.90
47336;DHT22;33068;51.990;5.926;2023-04-25T09:57:26;11.90;97.70
47336;DHT22;33068;51.990;5.926;2023-04-25T09:59:55;11.90;95.40
47336;DHT22;33068;51.990;5.926;2023-04-25T10:02:26;11.90;95.80
47336;DHT22;33068;51.990;5.926;2023-04-25T10:05:00;11.90;96.60
47336;DHT22;33068;51.990;5.926;2023-04-25T10:07:36;12.10;92.90
47336;DHT22;33068;51.990;5.926;2023-04-25T10:10:08;12.40;92.50
47336;DHT22;33068;51.990;5.926;2023-04-25T10:12:39;12.10;93.70
47336;DHT22;33068;51.990;5.926;2023-04-25T10:15:09;11.60;92.40
47336;DHT22;33068;51.990;5.926;2023-04-25T10:17:43;11.30;92.10
47336;DHT22;33068;51.990;5.926;2023-04-25T10:20:11;10.90;92.90
47336;DHT22;33068;51.990;5.926;2023-04-25T10:22:43;10.60;94.50
47336;DHT22;33068;51.990;5.926;2023-04-25T10:25:11;10.50;96.70
47336;DHT22;33068;51.990;5.926;2023-04-25T10:27:39;10.50;96.60
47336;DHT22;33068;51.990;5.926;2023-04-25T10:30:08;10.70;95.30
47336;DHT22;33068;51.990;5.926;2023-04-25T10:32:36;10.70;94.60
47336;DHT22;33068;51.990;5.926;2023-04-25T10:35:13;10.90;93.30
47336;DHT22;33068;51.990;5.926;2023-04-25T10:37:57;10.90;93.80
47336;DHT22;33068;51.990;5.926;2023-04-25T10:40:25;10.80;94.80
47336;DHT22;33068;51.990;5.926;2023-04-25T10:42:52;10.30;97.50
47336;DHT22;33068;51.990;5.926;2023-04-25T10:45:20;9.90;98.80
47336;DHT22;33068;51.990;5.926;2023-04-25T10:47:47;9.80;99.90
47336;DHT22;33068;51.990;5.926;2023-04-25T10:50:16;9.80;99.90
47336;DHT22;33068;51.990;5.926;2023-04-25T10:52:43;10.00;99.90
47336;DHT22;33068;51.990;5.926;2023-04-25T10:55:11;10.00;99.90
47336;DHT22;33068;51.990;5.926;2023-04-25T10:57:40;10.10;99.90
47336;DHT22;33068;51.990;5.926;2023-04-25T11:00:12;10.20;99.90
47336;DHT22;33068;51.990;5.926;2023-04-25T11:02:41;10.50;99.90
47336;DHT22;33068;51.990;5.926;2023-04-25T11:05:10;10.70;99.90
47336;DHT22;33068;51.990;5.926;2023-04-25T11:07:51;10.80;99.90
47336;DHT22;33068;51.990;5.926;2023-04-25T11:10:20;10.90;99.90
47336;DHT22;33068;51.990;5.926;2023-04-25T11:12:51;11.00;99.90
47336;DHT22;33068;51.990;5.926;2023-04-25T11:15:18;11.10;98.60
47336;DHT22;33068;51.990;5.926;2023-04-25T11:17:46;11.10;99.40
47336;DHT22;33068;51.990;5.926;2023-04-25T11:20:13;11.40;99.90
47336;DHT22;33068;51.990;5.926;2023-04-25T11:22:42;11.90;99.90
47336;DHT22;33068;51.990;5.926;2023-04-25T11:25:13;12.00;96.40
47336;DHT22;33068;51.990;5.926;2023-04-25T11:27:49;11.60;97.40
47336;DHT22;33068;51.990;5.926;2023-04-25T11:30:17;11.40;99.00
47336;DHT22;33068;51.990;5.926;2023-04-25T11:32:44;11.30;96.30
47336;DHT22;33068;51.990;5.926;2023-04-25T11:35:11;11.70;95.50
47336;DHT22;33068;51.990;5.926;2023-04-25T11:37:39;12.10;93.00
47336;DHT22;33068;51.990;5.926;2023-04-25T11:40:07;12.30;90.10
47336;DHT22;33068;51.990;5.926;2023-04-25T11:42:38;12.40;90.10
47336;DHT22;33068;51.990;5.926;2023-04-25T11:45:06;12.70;91.40
47336;DHT22;33068;51.990;5.926;2023-04-25T11:47:34;12.70;87.60
47336;DHT22;33068;51.990;5.926;2023-04-25T11:50:01;12.80;89.30
47336;DHT22;33068;51.990;5.926;2023-04-25T11:52:39;13.10;88.60
47336;DHT22;33068;51.990;5.926;2023-04-25T11:55:08;13.40;90.60
47336;DHT22;33068;51.990;5.926;2023-04-25T11:57:38;13.40;90.60
47336;DHT22;33068;51.990;5.926;2023-04-25T12:00:09;13.50;90.80
47336;DHT22;33068;51.990;5.926;2023-04-25T12:02:40;13.30;89.10
47336;DHT22;33068;51.990;5.926;2023-04-25T12:05:08;13.30;87.00
47336;DHT22;33068;51.990;5.926;2023-04-25T12:07:37;13.50;91.10
47336;DHT22;33068;51.990;5.926;2023-04-25T12:10:05;13.80;83.60
47336;DHT22;33068;51.990;5.926;2023-04-25T12:12:34;13.40;84.30
47336;DHT22;33068;51.990;5.926;2023-04-25T12:15:14;13.00;87.70
47336;DHT22;33068;51.990;5.926;2023-04-25T12:17:45;12.50;92.80
47336;DHT22;33068;51.990;5.926;2023-04-25T12:20:14;11.70;93.00
47336;DHT22;33068;51.990;5.926;2023-04-25T12:22:42;11.40;94.00
47336;DHT22;33068;51.990;5.926;2023-04-25T12:25:11;11.40;95.00
47336;DHT22;33068;51.990;5.926;2023-04-25T12:27:39;10.90;96.80
47336;DHT22;33068;51.990;5.926;2023-04-25T12:30:08;10.80;97.20
47336;DHT22;33068;51.990;5.926;2023-04-25T12:32:38;10.20;97.00
47336;DHT22;33068;51.990;5.926;2023-04-25T12:35:06;10.10;98.60
47336;DHT22;33068;51.990;5.926;2023-04-25T12:37:33;9.90;99.90
47336;DHT22;33068;51.990;5.926;2023-04-25T12:40:01;10.00;98.00
47336;DHT22;33068;51.990;5.926;2023-04-25T12:42:29;10.20;97.30
47336;DHT22;33068;51.990;5.926;2023-04-25T12:44:56;10.10;97.60
47336;DHT22;33068;51.990;5.926;2023-04-25T12:47:24;10.10;96.90
47336;DHT22;33068;51.990;5.926;2023-04-25T12:49:52;10.20;97.50
47336;DHT22;33068;51.990;5.926;2023-04-25T12:52:19;10.20;96.80
47336;DHT22;33068;51.990;5.926;2023-04-25T12:54:47;10.40;97.20
47336;DHT22;33068;51.990;5.926;2023-04-25T12:57:14;10.50;98.50
47336;DHT22;33068;51.990;5.926;2023-04-25T12:59:41;10.90;98.60
47336;DHT22;33068;51.990;5.926;2023-04-25T13:02:08;11.20;96.10
47336;DHT22;33068;51.990;5.926;2023-04-25T13:04:34;11.20;96.40
47336;DHT22;33068;51.990;5.926;2023-04-25T13:07:03;11.30;96.30
47336;DHT22;33068;51.990;5.926;2023-04-25T13:09:31;11.60;96.30
47336;DHT22;33068;51.990;5.926;2023-04-25T13:11:58;12.40;93.60
47336;DHT22;33068;51.990;5.926;2023-04-25T13:14:25;12.60;93.90
47336;DHT22;33068;51.990;5.926;2023-04-25T13:16:52;12.80;93.50
47336;DHT22;33068;51.990;5.926;2023-04-25T13:19:20;13.20;92.00
47336;DHT22;33068;51.990;5.926;2023-04-25T13:21:47;13.00;91.50
47336;DHT22;33068;51.990;5.926;2023-04-25T13:24:15;12.70;91.80
47336;DHT22;33068;51.990;5.926;2023-04-25T13:26:43;12.50;93.10
47336;DHT22;33068;51.990;5.926;2023-04-25T13:29:10;12.30;92.90
47336;DHT22;33068;51.990;5.926;2023-04-25T13:31:37;12.50;91.60
47336;DHT22;33068;51.990;5.926;2023-04-25T13:34:04;13.00;90.60
47336;DHT22;33068;51.990;5.926;2023-04-25T13:36:31;13.40;84.90
47336;DHT22;33068;51.990;5.926;2023-04-25T13:38:58;13.60;84.80
47336;DHT22;33068;51.990;5.926;2023-04-25T13:41:28;13.40;85.10
47336;DHT22;33068;51.990;5.926;2023-04-25T13:43:56;13.00;86.30
47336;DHT22;33068;51.990;5.926;2023-04-25T13:46:23;12.90;86.40
47336;DHT22;33068;51.990;5.926;2023-04-25T13:48:50;12.90;88.10
47336;DHT22;33068;51.990;5.926;2023-04-25T13:51:17;13.20;89.40
47336;DHT22;33068;51.990;5.926;2023-04-25T13:53:44;13.60;85.30
47336;DHT22;33068;51.990;5.926;2023-04-25T13:56:12;14.10;82.00
47336;DHT22;33068;51.990;5.926;2023-04-25T13:58:40;14.00;83.80
47336;DHT22;33068;51.990;5.926;2023-04-25T14:01:07;13.60;84.40
47336;DHT22;33068;51.990;5.926;2023-04-25T14:03:34;13.50;86.50
47336;DHT22;33068;51.990;5.926;2023-04-25T14:06:01;13.90;86.10
47336;DHT22;33068;51.990;5.926;2023-04-25T14:08:30;14.30;84.50
47336;DHT22;33068;51.990;5.926;2023-04-25T14:10:57;14.70;82.50
47336;DHT22;33068;51.990;5.926;2023-04-25T14:13:24;14.70;80.90
47336;DHT22;33068;51.990;5.926;2023-04-25T14:15:54;14.30;81.30
47336;DHT22;33068;51.990;5.926;2023-04-25T14:18:21;13.40;84.70
47336;DHT22;33068;51.990;5.926;2023-04-25T14:20:48;13.00;86.00
47336;DHT22;33068;51.990;5.926;2023-04-25T14:23:15;12.80;86.70
47336;DHT22;33068;51.990;5.926;2023-04-25T14:25:44;12.60;88.20
47336;DHT22;33068;51.990;5.926;2023-04-25T14:28:13;12.20;89.50
47336;DHT22;33068;51.990;5.926;2023-04-25T14:30:41;11.90;89.10
47336;DHT22;33068;51.990;5.926;2023-04-25T14:33:09;11.80;88.20
47336;DHT22;33068;51.990;5.926;2023-04-25T14:35:36;11.80;90.10
47336;DHT22;33068;51.990;5.926;2023-04-25T14:38:04;11.90;88.30
47336;DHT22;33068;51.990;5.926;2023-04-25T14:40:31;11.90;85.50
47336;DHT22;33068;51.990;5.926;2023-04-25T14:42:58;11.90;88.20
47336;DHT22;33068;51.990;5.926;2023-04-25T14:45:25;12.40;89.80
47336;DHT22;33068;51.990;5.926;2023-04-25T14:47:52;13.30;82.60
47336;DHT22;33068;51.990;5.926;2023-04-25T14:50:21;13.80;84.40
47336;DHT22;33068;51.990;5.926;2023-04-25T14:52:51;14.00;83.70
47336;DHT22;33068;51.990;5.926;2023-04-25T14:55:18;14.00;82.30
47336;DHT22;33068;51.990;5.926;2023-04-25T14:57:45;13.80;80.20
47336;DHT22;33068;51.990;5.926;2023-04-25T15:00:13;13.50;82.60
47336;DHT22;33068;51.990;5.926;2023-04-25T15:02:42;12.90;84.50
47336;DHT22;33068;51.990;5.926;2023-04-25T15:05:09;12.60;86.90
47336;DHT22;33068;51.990;5.926;2023-04-25T15:07:38;12.20;90.10
47336;DHT22;33068;51.990;5.926;2023-04-25T15:10:06;11.80;90.20
47336;DHT22;33068;51.990;5.926;2023-04-25T15:12:39;11.40;85.70
47336;DHT22;33068;51.990;5.926;2023-04-25T15:15:09;11.10;85.60
47336;DHT22;33068;51.990;5.926;2023-04-25T15:17:38;11.10;85.60
47336;DHT22;33068;51.990;5.926;2023-04-25T15:20:06;11.60;87.30
47336;DHT22;33068;51.990;5.926;2023-04-25T15:22:35;12.50;83.60
47336;DHT22;33068;51.990;5.926;2023-04-25T15:25:04;12.50;82.80
47336;DHT22;33068;51.990;5.926;2023-04-25T15:27:32;11.90;85.10
47336;DHT22;33068;51.990;5.926;2023-04-25T15:30:00;11.60;87.00
47336;DHT22;33068;51.990;5.926;2023-04-25T15:32:27;11.50;90.90
47336;DHT22;33068;51.990;5.926;2023-04-25T15:34:54;11.10;90.70
47336;DHT22;33068;51.990;5.926;2023-04-25T15:37:21;10.90;92.50
47336;DHT22;33068;51.990;5.926;2023-04-25T15:40:00;10.70;92.90
47336;DHT22;33068;51.990;5.926;2023-04-25T15:42:30;10.50;94.40
47336;DHT22;33068;51.990;5.926;2023-04-25T15:44:58;10.40;95.40
47336;DHT22;33068;51.990;5.926;2023-04-25T15:47:25;10.40;93.80
47336;DHT22;33068;51.990;5.926;2023-04-25T15:49:52;10.50;94.30
47336;DHT22;33068;51.990;5.926;2023-04-25T15:52:19;10.70;94.40
47336;DHT22;33068;51.990;5.926;2023-04-25T15:54:47;11.20;92.70
47336;DHT22;33068;51.990;5.926;2023-04-25T15:57:14;11.70;91.70
47336;DHT22;33068;51.990;5.926;2023-04-25T15:59:42;12.60;90.80
47336;DHT22;33068;51.990;5.926;2023-04-25T16:02:11;13.70;88.10